createdAt,value
2019-03-24T00:01:04.386Z,4.50
2019-03-24T00:03:33.987Z,4.50
2019-03-24T00:06:03.496Z,4.50
2019-03-24T00:08:33.033Z,4.50
2019-03-24T00:11:02.631Z,4.50
2019-03-24T00:13:32.239Z,4.50
2019-03-24T00:16:01.849Z,4.50
2019-03-24T00:18:31.463Z,4.40
2019-03-24T00:21:01.070Z,4.40
2019-03-24T00:23:30.673Z,4.40
2019-03-24T00:26:00.241Z,4.30
2019-03-24T00:28:29.742Z,4.30
2019-03-24T00:30:59.349Z,4.30
2019-03-24T00:33:28.970Z,4.20
2019-03-24T00:35:58.601Z,4.20
2019-03-24T00:38:28.237Z,4.20
2019-03-24T00:40:57.837Z,4.10
2019-03-24T00:43:27.356Z,4.10
2019-03-24T00:45:56.929Z,4.10
2019-03-24T00:48:26.546Z,4.10
2019-03-24T00:50:56.181Z,4.10
2019-03-24T00:53:25.761Z,4.10
2019-03-24T00:55:55.425Z,4.00
2019-03-24T00:58:25.036Z,4.00
2019-03-24T01:00:54.626Z,4.00
2019-03-24T01:03:24.242Z,4.00
2019-03-24T01:05:53.729Z,3.90
2019-03-24T01:08:23.346Z,3.90
2019-03-24T01:10:52.958Z,3.90
2019-03-24T01:13:22.458Z,3.90
2019-03-24T01:15:51.972Z,3.80
2019-03-24T01:18:21.602Z,3.80
2019-03-24T01:20:51.194Z,3.80
2019-03-24T01:23:20.808Z,3.80
2019-03-24T01:26:09.264Z,3.80
2019-03-24T01:28:38.891Z,3.80
2019-03-24T01:31:08.417Z,3.80
2019-03-24T01:33:37.961Z,3.80
2019-03-24T01:36:07.458Z,3.80
2019-03-24T01:38:37.068Z,3.70
2019-03-24T01:41:08.052Z,3.70
2019-03-24T01:43:37.854Z,3.70
2019-03-24T01:46:07.474Z,3.60
2019-03-24T01:48:37.099Z,3.60
2019-03-24T01:51:06.686Z,3.60
2019-03-24T01:53:36.285Z,3.60
2019-03-24T01:56:05.813Z,3.50
2019-03-24T01:58:35.329Z,3.50
2019-03-24T02:01:05.072Z,3.50
2019-03-24T02:03:34.618Z,3.50
2019-03-24T02:06:04.197Z,3.40
2019-03-24T02:08:33.774Z,3.40
2019-03-24T02:11:03.402Z,3.40
2019-03-24T02:13:32.974Z,3.40
2019-03-24T02:16:09.326Z,3.30
2019-03-24T02:18:33.866Z,3.30
2019-03-24T02:21:03.450Z,3.30
2019-03-24T02:23:33.048Z,3.30
2019-03-24T02:26:02.719Z,3.30
2019-03-24T02:28:32.315Z,3.20
2019-03-24T02:31:01.894Z,3.20
2019-03-24T02:33:31.524Z,3.20
2019-03-24T02:36:01.197Z,3.10
2019-03-24T02:38:30.790Z,3.10
2019-03-24T02:41:00.393Z,3.10
2019-03-24T02:43:29.965Z,3.00
2019-03-24T02:45:59.542Z,3.00
2019-03-24T02:48:29.154Z,3.00
2019-03-24T02:50:58.806Z,3.00
2019-03-24T02:53:28.390Z,3.00
2019-03-24T02:55:58.007Z,2.90
2019-03-24T02:58:27.603Z,2.90
2019-03-24T03:00:57.187Z,2.90
2019-03-24T03:03:26.793Z,2.90
2019-03-24T03:05:56.390Z,2.90
2019-03-24T03:08:25.979Z,2.90
2019-03-24T03:10:55.626Z,2.90
2019-03-24T03:13:25.133Z,2.90
2019-03-24T03:15:54.716Z,2.80
2019-03-24T03:18:24.307Z,2.80
2019-03-24T03:20:53.907Z,2.80
2019-03-24T03:23:23.483Z,2.80
2019-03-24T03:25:53.089Z,2.80
2019-03-24T03:28:22.717Z,2.80
2019-03-24T03:30:52.211Z,2.80
2019-03-24T03:33:21.735Z,2.80
2019-03-24T03:35:51.229Z,2.70
2019-03-24T03:38:20.760Z,2.70
2019-03-24T03:40:50.360Z,2.70
2019-03-24T03:43:19.857Z,2.60
2019-03-24T03:45:49.474Z,2.60
2019-03-24T03:48:19.050Z,2.60
2019-03-24T03:50:48.671Z,2.60
2019-03-24T03:53:37.151Z,2.60
2019-03-24T03:56:06.801Z,2.70
2019-03-24T03:58:36.406Z,2.70
2019-03-24T04:01:06.062Z,2.70
2019-03-24T04:03:35.662Z,2.70
2019-03-24T04:06:05.223Z,2.70
2019-03-24T04:08:34.874Z,2.70
2019-03-24T04:11:04.486Z,2.70
2019-03-24T04:13:34.136Z,2.60
2019-03-24T04:16:03.737Z,2.60
2019-03-24T04:18:33.238Z,2.60
2019-03-24T04:21:02.864Z,2.60
2019-03-24T04:23:51.390Z,2.60
2019-03-24T04:26:20.963Z,2.60
2019-03-24T04:28:50.551Z,2.60
2019-03-24T04:31:20.160Z,2.50
2019-03-24T04:33:49.661Z,2.50
2019-03-24T04:36:19.154Z,2.50
2019-03-24T04:38:48.760Z,2.40
2019-03-24T04:41:18.335Z,2.40
2019-03-24T04:43:47.966Z,2.40
2019-03-24T04:46:17.603Z,2.40
2019-03-24T04:48:47.181Z,2.40
2019-03-24T04:51:16.842Z,2.30
2019-03-24T04:53:46.513Z,2.30
2019-03-24T04:56:16.096Z,2.20
2019-03-24T04:58:45.714Z,2.20
2019-03-24T05:01:15.317Z,2.20
2019-03-24T05:03:44.985Z,2.10
2019-03-24T05:06:14.723Z,2.10
2019-03-24T05:08:44.314Z,2.10
2019-03-24T05:11:13.930Z,2.10
2019-03-24T05:13:43.503Z,2.10
2019-03-24T05:16:13.081Z,2.10
2019-03-24T05:18:42.610Z,2.10
2019-03-24T05:21:12.185Z,2.10
2019-03-24T05:23:41.685Z,2.20
2019-03-24T05:26:11.286Z,2.10
2019-03-24T05:28:40.873Z,2.20
2019-03-24T05:31:10.453Z,2.20
2019-03-24T05:33:40.037Z,2.20
2019-03-24T05:36:09.614Z,2.30
2019-03-24T05:38:39.189Z,2.30
2019-03-24T05:41:08.794Z,2.30
2019-03-24T05:43:38.375Z,2.20
2019-03-24T05:46:07.898Z,2.20
2019-03-24T05:48:37.534Z,2.20
2019-03-24T05:51:07.056Z,2.20
2019-03-24T05:53:36.645Z,2.20
2019-03-24T05:56:06.251Z,2.20
2019-03-24T05:58:35.734Z,2.20
2019-03-24T06:01:05.301Z,2.20
2019-03-24T06:03:34.908Z,2.20
2019-03-24T06:06:04.494Z,2.20
2019-03-24T06:08:35.802Z,2.20
2019-03-24T06:11:05.332Z,2.20
2019-03-24T06:13:34.941Z,2.20
2019-03-24T06:16:04.473Z,2.20
2019-03-24T06:18:34.090Z,2.20
2019-03-24T06:21:03.602Z,2.20
2019-03-24T06:23:33.189Z,2.10
2019-03-24T06:26:02.791Z,2.10
2019-03-24T06:28:32.383Z,2.10
2019-03-24T06:31:01.961Z,2.10
2019-03-24T06:33:31.571Z,2.10
2019-03-24T06:36:01.066Z,2.10
2019-03-24T06:38:30.570Z,2.10
2019-03-24T06:41:00.183Z,2.20
2019-03-24T06:43:29.766Z,2.20
2019-03-24T06:45:59.350Z,2.30
2019-03-24T06:48:28.978Z,2.30
2019-03-24T06:50:58.565Z,2.40
2019-03-24T06:53:28.170Z,2.40
2019-03-24T06:55:57.765Z,2.50
2019-03-24T06:58:27.273Z,2.50
2019-03-24T07:00:56.928Z,2.60
2019-03-24T07:03:26.511Z,2.60
2019-03-24T07:05:56.118Z,2.60
2019-03-24T07:08:25.693Z,2.60
2019-03-24T07:10:55.265Z,2.70
2019-03-24T07:13:24.874Z,2.80
2019-03-24T07:15:54.473Z,2.80
2019-03-24T07:18:24.084Z,2.80
2019-03-24T07:20:54.509Z,2.90
2019-03-24T07:23:24.050Z,2.90
2019-03-24T07:25:53.666Z,3.00
2019-03-24T07:28:24.867Z,3.00
2019-03-24T07:30:54.637Z,3.10
2019-03-24T07:33:24.230Z,3.20
2019-03-24T07:35:53.791Z,3.20
2019-03-24T07:38:23.450Z,3.20
2019-03-24T07:40:53.045Z,3.30
2019-03-24T07:43:22.638Z,3.30
2019-03-24T07:45:52.241Z,3.40
2019-03-24T07:48:21.826Z,3.40
2019-03-24T07:50:51.417Z,3.50
2019-03-24T07:53:21.230Z,3.50
2019-03-24T07:55:50.794Z,3.60
2019-03-24T07:58:20.374Z,3.60
2019-03-24T08:00:49.933Z,3.70
2019-03-24T08:03:19.571Z,3.80
2019-03-24T08:05:49.142Z,3.90
2019-03-24T08:08:18.770Z,4.00
2019-03-24T08:10:48.370Z,4.10
2019-03-24T08:13:17.985Z,4.20
2019-03-24T08:15:47.585Z,4.30
2019-03-24T08:18:17.148Z,4.40
2019-03-24T08:20:46.766Z,4.50
2019-03-24T08:23:16.403Z,4.70
2019-03-24T08:25:45.974Z,4.80
2019-03-24T08:28:15.634Z,5.00
2019-03-24T08:30:45.346Z,5.20
2019-03-24T08:33:14.940Z,5.30
2019-03-24T08:35:44.529Z,5.50
2019-03-24T08:38:14.053Z,5.70
2019-03-24T08:40:43.649Z,5.90
2019-03-24T08:43:13.318Z,6.20
2019-03-24T08:45:42.940Z,6.40
2019-03-24T08:48:12.462Z,6.70
2019-03-24T08:50:41.982Z,7.00
2019-03-24T08:53:11.570Z,7.20
2019-03-24T08:55:43.498Z,7.50
2019-03-24T08:58:13.061Z,8.00
2019-03-24T09:00:42.639Z,8.70
2019-03-24T09:03:12.168Z,9.50
2019-03-24T09:05:41.793Z,10.40
2019-03-24T09:08:11.433Z,11.00
2019-03-24T09:10:41.032Z,11.50
2019-03-24T09:13:10.672Z,11.90
2019-03-24T09:15:40.205Z,12.10
2019-03-24T09:18:09.815Z,11.90
2019-03-24T09:20:41.840Z,11.40
2019-03-24T09:23:10.829Z,11.00
2019-03-24T09:25:40.468Z,10.70
2019-03-24T09:28:10.121Z,10.40
